CheckWX is a tool to help pilots better visualize weather data.  It is not intended as a substitute for an official pre-flight weather briefing.

03:01:19 UTC

PAVD TAF
Valdez Pioneer Field Airport
Valdez, Alaska, USA
PAVD 250521Z 2506/2606 VRB05KT P6SM -SHRA SCT015 OVC030 TEMPO 2506/2510 SCT020 OVC040 FM251800 VRB03KT P6SM -SHRA SCT025 OVC040 AMD LTD TO CLD VIS AND WIND

May-25@
06:00 UTC

May-25 @ 06:00 UTC

May-25@
18:00 UTC

May-25 @ 18:00 UTC

TAF PAVD 250521Z 2506/2606 VRB05KT P6SM -SHRA SCT015 OVC030

Expired

Wind
  • Variable at 5 KTS
Conditions
Light Showers, Rain
Cloud Levels
  • Scattered at 1,500' AGL
  • Overcast at 3,000' AGL

May-25@
06:00 UTC

May-25 @ 06:00 UTC

May-25@
10:00 UTC

May-25 @ 10:00 UTC

TEMPO 2506/2510 SCT020 OVC040

Expired

Cloud Levels
  • Scattered at 2,000' AGL
  • Overcast at 4,000' AGL

May-25@
18:00 UTC

May-25 @ 18:00 UTC

May-26@
06:00 UTC

May-26 @ 06:00 UTC

FM251800 VRB03KT P6SM -SHRA SCT025 OVC040 AMD LTD TO CLD VIS AND WIND

From

From Standard forecast or significant change

Wind
  • Variable at 3 KTS
Conditions
Light Showers, Rain
Cloud Levels
  • Scattered at 2,500' AGL
  • Overcast at 4,000' AGL